Time;durP1;ratioP1;P1;durP2;ratioP2;P2;SDS_P1;SDS_P2;PMS_P1;PMS_P2;Temp;Humidity;BMP_temperature;BMP_pressure;BME280_temperature;BME280_humidity;BME280_pressure;Samples;Min_cycle;Max_cycle;Signal;HPM_P1;HPM_P2
2023/07/21 00:01:51;;;;;;;10.33;9.33;;;14.00;99.90;;;;;;5050728;28;20185;-60
2023/07/21 00:04:24;;;;;;;9.60;8.70;;;14.00;99.90;;;;;;5056585;28;20535;-59
2023/07/21 00:06:52;;;;;;;10.40;8.47;;;14.00;99.90;;;;;;5042303;28;20332;-60
2023/07/21 00:09:21;;;;;;;10.60;9.00;;;14.00;99.90;;;;;;5055164;28;20243;-59
2023/07/21 00:11:49;;;;;;;10.27;8.87;;;13.90;99.90;;;;;;5052054;28;20209;-59
2023/07/21 00:14:17;;;;;;;10.20;9.30;;;14.00;99.90;;;;;;5055137;28;20219;-60
2023/07/21 00:16:46;;;;;;;11.80;10.17;;;13.90;99.90;;;;;;5059217;28;20196;-59
2023/07/21 00:19:15;;;;;;;10.63;9.53;;;13.90;99.90;;;;;;5049698;28;20192;-60
2023/07/21 00:21:44;;;;;;;9.87;8.97;;;13.90;99.90;;;;;;5052065;28;20190;-59
2023/07/21 00:24:13;;;;;;;10.73;9.63;;;13.90;99.90;;;;;;5054679;28;20209;-59
2023/07/21 00:26:41;;;;;;;13.33;10.10;;;14.00;99.90;;;;;;5059098;28;20197;-59
2023/07/21 00:29:10;;;;;;;12.10;10.20;;;13.90;99.90;;;;;;5056993;28;20191;-59
2023/07/21 00:31:42;;;;;;;13.77;10.60;;;13.90;99.90;;;;;;5054001;28;20204;-59
2023/07/21 00:34:11;;;;;;;13.70;11.10;;;13.80;99.90;;;;;;5056419;28;20207;-59
2023/07/21 00:36:41;;;;;;;10.50;9.23;;;13.80;99.90;;;;;;5046334;28;20189;-59
2023/07/21 00:39:09;;;;;;;9.93;8.73;;;13.80;99.90;;;;;;5048811;28;20661;-59
2023/07/21 00:41:38;;;;;;;9.93;8.93;;;13.80;99.90;;;;;;5049164;28;20194;-59
2023/07/21 00:44:08;;;;;;;8.37;7.70;;;13.70;99.90;;;;;;5047728;28;20636;-59
2023/07/21 00:46:37;;;;;;;8.87;7.93;;;13.70;99.90;;;;;;5052688;28;20191;-58
2023/07/21 00:49:08;;;;;;;9.67;8.60;;;13.60;99.90;;;;;;5047736;28;20879;-59
2023/07/21 00:51:37;;;;;;;8.57;7.80;;;13.60;99.90;;;;;;5067194;28;20218;-59
2023/07/21 00:54:07;;;;;;;9.07;8.37;;;13.60;99.90;;;;;;5044531;28;20669;-60
2023/07/21 00:56:35;;;;;;;9.50;8.70;;;13.50;99.90;;;;;;5044814;28;20193;-59
2023/07/21 00:59:04;;;;;;;9.47;8.67;;;13.50;99.90;;;;;;5043480;28;20210;-59
2023/07/21 01:01:33;;;;;;;11.50;9.90;;;13.50;99.90;;;;;;5050921;28;20205;-59
2023/07/21 01:04:02;;;;;;;10.43;9.30;;;13.50;99.90;;;;;;5046813;28;20201;-59
2023/07/21 01:06:32;;;;;;;11.73;10.40;;;13.50;99.90;;;;;;5056679;28;20204;-59
2023/07/21 01:09:04;;;;;;;12.60;9.63;;;13.50;99.90;;;;;;5048706;28;20195;-59
2023/07/21 01:11:34;;;;;;;10.73;9.63;;;13.50;99.90;;;;;;5046402;28;20185;-59
2023/07/21 01:14:06;;;;;;;11.27;10.17;;;13.40;99.90;;;;;;5054379;28;20200;-59
2023/07/21 01:16:37;;;;;;;13.53;10.27;;;13.40;99.90;;;;;;5055010;28;20268;-59
2023/07/21 01:19:12;;;;;;;12.37;11.07;;;13.40;99.90;;;;;;5055268;28;20561;-59
2023/07/21 01:21:46;;;;;;;12.40;11.20;;;13.40;99.90;;;;;;5040550;28;20208;-59
2023/07/21 01:24:21;;;;;;;15.13;11.30;;;13.40;99.90;;;;;;5050728;28;20189;-60
2023/07/21 01:26:52;;;;;;;14.60;11.87;;;13.40;99.90;;;;;;5052389;28;20193;-59
2023/07/21 01:29:23;;;;;;;13.00;11.13;;;13.40;99.90;;;;;;5053857;28;20712;-59
2023/07/21 01:31:53;;;;;;;13.03;10.93;;;13.30;99.90;;;;;;5046498;28;20213;-59
2023/07/21 01:34:22;;;;;;;14.57;10.77;;;13.30;99.90;;;;;;5051927;28;20271;-59
2023/07/21 01:36:51;;;;;;;13.13;10.13;;;13.30;99.90;;;;;;5049382;28;20189;-59
2023/07/21 01:39:21;;;;;;;11.77;10.57;;;13.20;99.90;;;;;;5040822;28;20198;-59
2023/07/21 01:41:51;;;;;;;12.93;10.83;;;13.20;99.90;;;;;;5043852;28;20201;-59
2023/07/21 01:44:21;;;;;;;13.73;10.83;;;13.20;99.90;;;;;;5040619;28;20202;-59
2023/07/21 01:46:52;;;;;;;10.70;9.57;;;13.10;99.90;;;;;;5058322;28;20671;-59
2023/07/21 01:49:21;;;;;;;12.43;9.47;;;13.10;99.90;;;;;;5054096;28;20372;-59
2023/07/21 01:51:52;;;;;;;11.97;10.70;;;13.10;99.90;;;;;;5054036;28;20193;-59
2023/07/21 01:54:25;;;;;;;11.57;10.47;;;13.10;99.90;;;;;;5048984;28;20201;-59
2023/07/21 01:57:00;;;;;;;12.93;10.73;;;13.10;99.90;;;;;;5050691;28;20551;-59
2023/07/21 01:59:29;;;;;;;15.23;10.20;;;13.10;99.90;;;;;;5050706;28;20193;-60
2023/07/21 02:01:58;;;;;;;11.83;10.60;;;13.00;99.90;;;;;;5050320;28;20287;-59
2023/07/21 02:04:27;;;;;;;13.93;10.23;;;13.00;99.90;;;;;;5050242;28;20189;-60
2023/07/21 02:06:55;;;;;;;12.27;9.97;;;12.90;99.90;;;;;;5040602;28;20198;-59
2023/07/21 02:09:25;;;;;;;15.17;10.80;;;12.90;99.90;;;;;;5055043;28;20199;-59
2023/07/21 02:11:53;;;;;;;11.37;9.90;;;12.90;99.90;;;;;;5050754;28;20198;-59
2023/07/21 02:14:23;;;;;;;11.10;9.70;;;12.90;99.90;;;;;;5051535;28;20669;-59
2023/07/21 02:16:51;;;;;;;11.83;9.30;;;12.80;99.90;;;;;;5048282;28;20197;-59
2023/07/21 02:19:20;;;;;;;10.50;9.53;;;12.80;99.90;;;;;;5050631;28;20192;-59
2023/07/21 02:21:48;;;;;;;11.23;9.97;;;12.80;99.90;;;;;;5049845;28;20204;-59
2023/07/21 02:24:16;;;;;;;11.53;10.33;;;12.80;99.90;;;;;;5057224;28;20184;-59
2023/07/21 02:26:45;;;;;;;12.13;10.27;;;12.80;99.90;;;;;;5045897;28;20200;-59
2023/07/21 02:29:13;;;;;;;13.23;9.50;;;12.80;99.90;;;;;;5044878;28;20185;-59
2023/07/21 02:31:43;;;;;;;13.10;10.07;;;12.70;99.90;;;;;;5045113;28;20539;-60
2023/07/21 02:34:12;;;;;;;12.33;10.43;;;12.80;99.90;;;;;;5046363;28;20243;-59
2023/07/21 02:36:40;;;;;;;13.07;11.63;;;12.70;99.90;;;;;;5047786;28;20188;-59
2023/07/21 02:39:09;;;;;;;12.90;11.60;;;12.80;99.90;;;;;;5048279;28;20201;-59
2023/07/21 02:41:37;;;;;;;13.43;12.03;;;12.80;99.90;;;;;;5048909;28;20193;-59
2023/07/21 02:44:05;;;;;;;14.47;10.53;;;12.80;99.90;;;;;;5046590;28;20224;-59
2023/07/21 02:46:33;;;;;;;11.30;10.30;;;12.80;99.90;;;;;;5049622;28;20289;-59
2023/07/21 02:49:03;;;;;;;11.30;10.20;;;12.80;99.90;;;;;;5053070;28;20238;-60
2023/07/21 02:51:32;;;;;;;11.57;10.47;;;12.70;99.90;;;;;;5045714;28;20198;-59
2023/07/21 02:54:01;;;;;;;12.00;10.80;;;12.70;99.90;;;;;;5043164;28;20743;-59
2023/07/21 02:56:30;;;;;;;14.30;11.37;;;12.70;99.90;;;;;;5042906;28;20191;-59
2023/07/21 02:59:00;;;;;;;14.83;11.77;;;12.60;99.90;;;;;;5052782;28;20197;-59
2023/07/21 03:01:29;;;;;;;13.67;12.03;;;12.60;99.90;;;;;;5048079;28;20212;-59
2023/07/21 03:03:58;;;;;;;12.93;11.40;;;12.60;99.90;;;;;;5060616;28;20192;-59
2023/07/21 03:06:30;;;;;;;12.80;11.47;;;12.60;99.90;;;;;;5052475;28;20284;-59
2023/07/21 03:08:59;;;;;;;12.37;11.03;;;12.50;99.90;;;;;;5055119;28;20547;-58
2023/07/21 03:11:28;;;;;;;14.60;12.20;;;12.50;99.90;;;;;;5037773;28;20736;-58
2023/07/21 03:13:56;;;;;;;12.43;11.13;;;12.50;99.90;;;;;;5053528;28;20223;-58
2023/07/21 03:16:25;;;;;;;16.40;12.17;;;12.40;99.90;;;;;;5045390;28;20712;-58
2023/07/21 03:18:53;;;;;;;14.80;11.63;;;12.40;99.90;;;;;;5054788;28;20191;-58
2023/07/21 03:21:22;;;;;;;14.13;11.17;;;12.40;99.90;;;;;;5052036;28;20591;-59
2023/07/21 03:23:51;;;;;;;13.43;11.20;;;12.30;99.90;;;;;;5047239;28;20188;-59
2023/07/21 03:26:20;;;;;;;14.73;12.17;;;12.30;99.90;;;;;;5049935;28;20185;-58
2023/07/21 03:28:48;;;;;;;13.27;11.87;;;12.20;99.90;;;;;;5051360;28;20193;-59
2023/07/21 03:31:17;;;;;;;15.33;12.37;;;12.20;99.90;;;;;;5035772;28;20284;-59
2023/07/21 03:33:45;;;;;;;13.80;12.37;;;12.20;99.90;;;;;;5036193;28;20209;-59
2023/07/21 03:36:13;;;;;;;16.43;13.10;;;12.20;99.90;;;;;;5054621;28;20203;-59
2023/07/21 03:38:42;;;;;;;15.00;12.33;;;12.20;99.90;;;;;;5040418;28;20189;-59
2023/07/21 03:41:12;;;;;;;12.53;11.23;;;12.20;99.90;;;;;;5041516;28;20559;-58
2023/07/21 03:43:41;;;;;;;14.07;10.90;;;12.20;99.90;;;;;;5047872;28;20197;-58
2023/07/21 03:46:10;;;;;;;12.43;10.77;;;12.20;99.90;;;;;;5052365;28;20220;-58
2023/07/21 03:48:38;;;;;;;14.77;11.87;;;12.20;99.90;;;;;;5050623;28;20232;-59
2023/07/21 03:51:07;;;;;;;13.03;11.00;;;12.20;99.90;;;;;;5052311;28;20209;-59
2023/07/21 03:53:36;;;;;;;12.43;10.97;;;12.20;99.90;;;;;;5051323;28;20304;-59
2023/07/21 03:56:05;;;;;;;15.97;11.00;;;12.20;99.90;;;;;;5061026;28;20530;-59
2023/07/21 03:58:35;;;;;;;17.10;12.10;;;12.20;99.90;;;;;;5051670;28;20628;-59
2023/07/21 04:01:04;;;;;;;21.67;13.87;;;12.10;99.90;;;;;;5048441;28;20690;-59
2023/07/21 04:03:33;;;;;;;45.80;14.70;;;12.10;99.90;;;;;;5060912;28;20526;-59
2023/07/21 04:06:07;;;;;;;30.33;15.40;;;12.20;99.90;;;;;;5060629;28;20226;-59
2023/07/21 04:08:36;;;;;;;25.23;14.10;;;12.20;99.90;;;;;;5054407;28;20655;-61
2023/07/21 04:11:04;;;;;;;20.17;14.67;;;12.20;99.90;;;;;;5047440;28;20205;-60
2023/07/21 04:13:34;;;;;;;15.70;12.97;;;12.20;99.90;;;;;;5053222;28;20204;-59
2023/07/21 04:16:02;;;;;;;13.87;12.23;;;12.20;99.90;;;;;;5054583;28;20254;-60
2023/07/21 04:18:30;;;;;;;13.73;12.13;;;12.20;99.90;;;;;;5049445;28;20182;-59
2023/07/21 04:20:59;;;;;;;12.47;11.27;;;12.20;99.90;;;;;;5064245;28;20199;-59
2023/07/21 04:23:27;;;;;;;13.10;11.90;;;12.20;99.90;;;;;;5062818;28;20181;-58
2023/07/21 04:25:55;;;;;;;14.57;11.60;;;12.30;99.90;;;;;;5061360;28;20205;-59
2023/07/21 04:28:24;;;;;;;12.90;11.60;;;12.30;99.90;;;;;;5048684;28;20520;-58
2023/07/21 04:30:56;;;;;;;13.03;11.73;;;12.40;99.90;;;;;;5051076;28;20189;-59
2023/07/21 04:33:24;;;;;;;13.73;12.33;;;12.40;99.90;;;;;;5051684;28;20183;-59
2023/07/21 04:35:53;;;;;;;13.67;12.17;;;12.50;99.90;;;;;;5048755;28;20318;-58
2023/07/21 04:38:22;;;;;;;13.33;12.00;;;12.50;99.90;;;;;;5057321;28;20656;-59
2023/07/21 04:40:50;;;;;;;13.83;12.43;;;12.60;99.90;;;;;;5057122;28;20190;-59
2023/07/21 04:43:18;;;;;;;13.73;12.43;;;12.60;99.90;;;;;;5056546;28;20727;-59
2023/07/21 04:45:47;;;;;;;14.93;12.63;;;12.70;99.90;;;;;;5052778;28;20188;-59
2023/07/21 04:48:17;;;;;;;14.17;12.77;;;12.70;99.90;;;;;;5053699;28;20233;-59
2023/07/21 04:50:51;;;;;;;13.93;12.50;;;12.80;99.90;;;;;;5051913;28;20181;-59
2023/07/21 04:53:19;;;;;;;12.80;11.33;;;12.90;99.90;;;;;;5046377;28;20215;-58
2023/07/21 04:55:48;;;;;;;13.20;11.90;;;13.00;99.90;;;;;;5048803;28;20297;-58
2023/07/21 04:58:16;;;;;;;13.10;11.80;;;13.00;99.90;;;;;;5051336;28;20679;-58
2023/07/21 05:00:44;;;;;;;11.87;10.67;;;13.10;99.90;;;;;;5050927;28;20547;-59
2023/07/21 05:03:12;;;;;;;12.60;11.30;;;13.20;99.90;;;;;;5056029;28;20189;-58
2023/07/21 05:05:43;;;;;;;12.93;11.73;;;13.30;99.90;;;;;;5052810;28;20532;-59
2023/07/21 05:08:11;;;;;;;13.37;12.17;;;13.40;99.90;;;;;;5046619;28;20196;-59
2023/07/21 05:10:40;;;;;;;13.10;11.67;;;13.50;99.90;;;;;;5048224;28;20265;-59
2023/07/21 05:13:08;;;;;;;12.80;11.60;;;13.60;99.90;;;;;;5053122;28;20194;-59
2023/07/21 05:15:36;;;;;;;14.63;11.13;;;13.60;99.90;;;;;;5052870;28;20229;-59
2023/07/21 05:18:05;;;;;;;14.13;12.40;;;13.70;99.90;;;;;;5046141;28;20195;-59
2023/07/21 05:20:33;;;;;;;11.30;10.30;;;13.80;99.90;;;;;;5057379;28;20221;-58
2023/07/21 05:23:03;;;;;;;12.30;11.27;;;13.90;99.90;;;;;;5044226;28;20206;-59
2023/07/21 05:25:32;;;;;;;12.87;11.67;;;14.10;99.90;;;;;;5060076;28;20198;-59
2023/07/21 05:28:00;;;;;;;13.53;11.90;;;14.20;99.90;;;;;;5045503;28;20191;-59
2023/07/21 05:30:28;;;;;;;15.47;11.50;;;14.40;99.90;;;;;;5050744;28;20195;-59
2023/07/21 05:32:57;;;;;;;17.83;11.73;;;14.50;99.90;;;;;;5056139;28;20220;-58
2023/07/21 05:35:26;;;;;;;13.43;11.70;;;14.50;99.90;;;;;;5055308;28;20235;-59
2023/07/21 05:37:55;;;;;;;11.93;10.93;;;14.60;99.90;;;;;;5052528;28;20189;-58
2023/07/21 05:40:25;;;;;;;12.83;11.53;;;14.70;99.90;;;;;;5057537;28;20196;-59
2023/07/21 05:42:53;;;;;;;13.73;12.33;;;14.80;99.90;;;;;;5055600;28;20206;-59
2023/07/21 05:45:21;;;;;;;13.00;11.23;;;14.90;99.90;;;;;;5050908;28;20196;-59
2023/07/21 05:47:51;;;;;;;14.23;12.57;;;15.00;99.90;;;;;;5057255;28;20270;-59
2023/07/21 05:50:20;;;;;;;17.37;14.47;;;15.10;99.90;;;;;;5051683;28;20201;-58
2023/07/21 05:52:50;;;;;;;16.97;15.00;;;15.20;99.90;;;;;;5048750;28;20550;-59
2023/07/21 05:55:19;;;;;;;18.23;15.20;;;15.30;99.90;;;;;;5048739;28;20270;-58
2023/07/21 05:57:49;;;;;;;20.03;16.57;;;15.40;99.90;;;;;;5047740;28;20238;-58
2023/07/21 06:00:18;;;;;;;22.77;16.87;;;15.50;99.90;;;;;;5045584;28;20204;-58
2023/07/21 06:02:46;;;;;;;21.57;16.60;;;15.50;99.90;;;;;;5051474;28;20191;-59
2023/07/21 06:05:15;;;;;;;20.13;14.80;;;15.60;99.90;;;;;;5065475;28;20190;-59
2023/07/21 06:07:44;;;;;;;19.93;16.23;;;15.80;99.90;;;;;;5050029;28;20229;-58
2023/07/21 06:10:13;;;;;;;19.73;15.77;;;16.00;99.90;;;;;;5055975;28;20681;-59
2023/07/21 06:12:41;;;;;;;23.67;19.10;;;16.20;99.90;;;;;;5050489;28;20217;-59
2023/07/21 06:15:11;;;;;;;25.33;19.47;;;16.40;99.90;;;;;;5050572;28;20216;-59
2023/07/21 06:17:40;;;;;;;21.37;16.93;;;16.50;99.90;;;;;;5047572;28;20811;-59
2023/07/21 06:20:10;;;;;;;19.53;16.53;;;16.80;99.90;;;;;;5063006;28;20198;-59
2023/07/21 06:22:39;;;;;;;19.93;17.03;;;16.90;99.90;;;;;;5051205;28;20279;-59
2023/07/21 06:25:08;;;;;;;20.60;17.07;;;17.00;99.90;;;;;;5055614;28;20542;-59
2023/07/21 06:27:40;;;;;;;21.53;17.90;;;17.20;99.90;;;;;;5050805;28;20188;-58
2023/07/21 06:30:09;;;;;;;22.63;18.90;;;17.50;99.90;;;;;;5055895;28;20202;-59
2023/07/21 06:32:40;;;;;;;23.90;18.83;;;17.70;99.90;;;;;;5048209;28;20200;-58
2023/07/21 06:35:09;;;;;;;23.90;19.97;;;17.90;99.90;;;;;;5049949;28;20217;-58
2023/07/21 06:37:39;;;;;;;25.33;18.87;;;18.10;99.90;;;;;;5051468;28;20235;-58
2023/07/21 06:40:09;;;;;;;23.73;18.77;;;18.20;99.90;;;;;;5050719;28;20197;-58
2023/07/21 06:42:38;;;;;;;23.43;19.20;;;18.10;99.90;;;;;;5051897;28;20203;-58
2023/07/21 06:45:09;;;;;;;23.00;19.47;;;18.20;99.90;;;;;;5048259;28;20200;-59
2023/07/21 06:47:39;;;;;;;23.87;20.20;;;18.40;99.90;;;;;;5043596;28;20216;-59
2023/07/21 06:50:08;;;;;;;22.87;19.37;;;18.60;99.90;;;;;;5045931;28;20219;-59
2023/07/21 06:52:37;;;;;;;23.87;20.77;;;18.60;99.90;;;;;;5051560;28;20223;-58
2023/07/21 06:55:07;;;;;;;25.20;20.87;;;18.50;99.90;;;;;;5055110;28;20205;-59
2023/07/21 06:57:35;;;;;;;22.67;19.30;;;18.50;99.90;;;;;;5051339;28;20188;-59
2023/07/21 07:00:05;;;;;;;24.43;20.40;;;18.60;99.90;;;;;;5052280;28;20200;-58
2023/07/21 07:02:33;;;;;;;26.53;21.40;;;18.50;99.90;;;;;;5050569;28;20194;-58
2023/07/21 07:05:03;;;;;;;25.10;20.20;;;18.60;99.90;;;;;;5050997;28;20219;-58
2023/07/21 07:07:34;;;;;;;23.43;20.20;;;18.60;99.90;;;;;;5046920;28;20197;-58
2023/07/21 07:10:02;;;;;;;29.30;22.47;;;18.50;99.90;;;;;;5045033;28;20717;-59
2023/07/21 07:12:30;;;;;;;24.80;21.13;;;18.50;99.90;;;;;;5049261;28;20642;-59
2023/07/21 07:14:59;;;;;;;27.73;21.77;;;18.60;99.90;;;;;;5045152;28;20212;-59
2023/07/21 07:17:27;;;;;;;23.93;19.80;;;18.70;99.90;;;;;;5049870;28;20271;-58
2023/07/21 07:19:55;;;;;;;25.80;20.23;;;18.80;99.90;;;;;;5053126;28;20207;-58
2023/07/21 07:22:26;;;;;;;24.80;20.07;;;19.20;95.80;;;;;;5053081;28;20185;-58
2023/07/21 07:24:54;;;;;;;23.00;18.23;;;19.40;86.40;;;;;;5056695;28;20198;-58
2023/07/21 07:27:22;;;;;;;21.90;18.60;;;19.50;82.10;;;;;;5049888;28;20196;-58
2023/07/21 07:29:50;;;;;;;26.27;18.77;;;19.40;68.80;;;;;;5051475;28;20212;-58
2023/07/21 07:32:19;;;;;;;24.30;17.83;;;19.10;82.40;;;;;;5048669;28;20201;-59
2023/07/21 07:34:48;;;;;;;22.30;17.50;;;18.90;86.70;;;;;;5055504;28;20292;-59
2023/07/21 07:37:18;;;;;;;22.93;17.90;;;18.80;90.10;;;;;;5055300;28;20193;-58
2023/07/21 07:39:48;;;;;;;22.00;17.50;;;18.70;92.70;;;;;;5056717;28;20192;-59
2023/07/21 07:42:16;;;;;;;22.90;17.13;;;18.70;92.80;;;;;;5051462;28;20574;-58
2023/07/21 07:44:45;;;;;;;24.10;17.00;;;18.70;95.40;;;;;;5048911;28;20189;-58
2023/07/21 07:47:13;;;;;;;22.40;16.80;;;18.80;94.60;;;;;;5056326;28;20201;-59
2023/07/21 07:49:42;;;;;;;19.40;15.73;;;19.20;82.40;;;;;;5052679;28;20233;-59
2023/07/21 07:52:10;;;;;;;18.63;14.80;;;19.60;66.40;;;;;;5056784;28;20193;-59
2023/07/21 07:54:38;;;;;;;16.50;14.20;;;19.90;52.30;;;;;;5057722;28;20187;-58
2023/07/21 07:57:08;;;;;;;17.90;13.80;;;20.50;24.50;;;;;;5050717;28;20234;-59
2023/07/21 07:59:37;;;;;;;14.90;13.07;;;21.10;28.00;;;;;;5050398;28;20193;-59
2023/07/21 08:02:06;;;;;;;17.43;14.27;;;21.50;1.00;;;;;;5045221;28;20201;-59
2023/07/21 08:04:34;;;;;;;13.40;12.03;;;21.60;1.00;;;;;;5043690;28;20204;-58
2023/07/21 08:07:04;;;;;;;13.20;11.93;;;21.70;6.80;;;;;;5044196;28;20215;-58
2023/07/21 08:09:33;;;;;;;14.33;12.17;;;22.10;1.00;;;;;;5046343;28;20197;-60
2023/07/21 08:12:01;;;;;;;16.17;13.27;;;22.00;1.00;;;;;;5060443;28;20216;-59
2023/07/21 08:14:31;;;;;;;14.50;13.00;;;21.60;1.00;;;;;;5052543;28;20278;-60
2023/07/21 08:17:01;;;;;;;16.57;14.27;;;21.20;1.00;;;;;;5054899;28;20234;-59
2023/07/21 08:19:32;;;;;;;15.87;14.13;;;21.00;1.00;;;;;;5050778;28;20228;-59
2023/07/21 08:22:05;;;;;;;15.50;13.90;;;21.00;1.00;;;;;;5045478;28;20216;-58
2023/07/21 08:24:34;;;;;;;14.53;11.97;;;21.30;1.30;;;;;;5059442;28;20833;-59
2023/07/21 08:27:04;;;;;;;13.57;12.17;;;21.40;1.00;;;;;;5050050;28;20192;-58
2023/07/21 08:29:34;;;;;;;19.73;16.73;;;21.30;1.00;;;;;;5054715;28;20279;-59
2023/07/21 08:32:03;;;;;;;18.40;16.17;;;21.30;1.00;;;;;;5058239;28;20193;-59
2023/07/21 08:34:31;;;;;;;16.43;14.70;;;21.70;1.00;;;;;;5052607;28;20205;-59
2023/07/21 08:37:00;;;;;;;17.00;13.27;;;22.10;1.00;;;;;;5051825;28;20283;-59
2023/07/21 08:39:30;;;;;;;16.17;13.40;;;22.70;1.00;;;;;;5048213;28;20188;-59
2023/07/21 08:42:02;;;;;;;15.73;12.52;;;23.40;1.00;;;;;;5049679;28;20194;-59
2023/07/21 08:44:33;;;;;;;13.68;11.48;;;23.80;1.00;;;;;;5048663;28;20198;-59
2023/07/21 08:47:02;;;;;;;11.88;10.75;;;24.20;1.00;;;;;;5052634;28;20769;-59
2023/07/21 08:49:32;;;;;;;14.32;9.77;;;24.40;1.00;;;;;;5048720;28;20281;-59
2023/07/21 08:52:00;;;;;;;10.70;9.70;;;24.70;1.00;;;;;;5049886;28;20198;-59
2023/07/21 08:54:29;;;;;;;11.38;10.27;;;24.80;99.90;;;;;;5045723;28;20188;-59
2023/07/21 08:57:00;;;;;;;11.15;10.13;;;24.90;99.90;;;;;;5054067;28;20297;-59
2023/07/21 08:59:28;;;;;;;11.35;10.00;;;24.60;99.90;;;;;;5044927;28;20198;-59
2023/07/21 09:01:59;;;;;;;11.77;9.90;;;24.30;99.90;;;;;;5052880;28;20209;-58
2023/07/21 09:04:27;;;;;;;14.75;11.48;;;23.80;99.90;;;;;;5046619;28;20201;-59
2023/07/21 09:06:57;;;;;;;17.98;11.48;;;24.00;99.90;;;;;;5052890;28;20190;-59
2023/07/21 09:09:28;;;;;;;12.38;10.57;;;24.30;99.90;;;;;;5049667;28;20723;-59
2023/07/21 09:12:01;;;;;;;12.93;11.13;;;24.90;99.90;;;;;;5055967;28;20229;-59
2023/07/21 09:14:37;;;;;;;12.23;10.15;;;25.80;99.90;;;;;;5064117;28;20188;-59
2023/07/21 09:17:08;;;;;;;12.73;10.80;;;26.70;99.90;;;;;;5055419;28;20220;-59
2023/07/21 09:19:37;;;;;;;14.75;11.65;;;26.00;99.90;;;;;;5043592;28;20213;-59
2023/07/21 09:22:06;;;;;;;17.77;11.85;;;24.90;95.50;;;;;;5050115;28;20195;-59
2023/07/21 09:24:37;;;;;;;10.93;9.85;;;24.00;99.90;;;;;;5050558;28;20229;-59
2023/07/21 09:27:12;;;;;;;11.68;9.40;;;23.20;1.00;;;;;;5049695;28;20215;-60
2023/07/21 09:29:41;;;;;;;9.73;8.73;;;24.10;99.90;;;;;;5045655;28;20690;-59
2023/07/21 09:32:15;;;;;;;9.15;7.85;;;24.90;1.00;;;;;;5045862;28;20207;-59
2023/07/21 09:34:55;;;;;;;7.93;7.13;;;25.70;99.90;;;;;;5045200;28;20197;-59
2023/07/21 09:37:26;;;;;;;7.90;7.20;;;26.50;99.90;;;;;;5042417;28;20200;-60
2023/07/21 09:39:57;;;;;;;6.30;5.68;;;26.60;99.90;;;;;;5053221;28;20268;-59
2023/07/21 09:42:27;;;;;;;9.48;3.75;;;26.20;99.90;;;;;;5052678;28;20308;-60
2023/07/21 09:44:58;;;;;;;4.88;4.20;;;25.30;99.90;;;;;;5064216;28;20207;-58
2023/07/21 09:47:28;;;;;;;4.68;4.22;;;25.40;99.90;;;;;;5061270;28;20280;-59
2023/07/21 09:49:59;;;;;;;6.90;4.78;;;26.30;99.90;;;;;;5062773;28;20253;-58
2023/07/21 09:52:30;;;;;;;4.70;4.40;;;26.50;99.90;;;;;;5049615;28;20195;-59
2023/07/21 09:55:08;;;;;;;4.18;3.10;;;26.70;99.90;;;;;;5052943;28;20195;-58
2023/07/21 09:57:42;;;;;;;3.83;2.90;;;26.90;99.90;;;;;;5060527;28;20212;-59
2023/07/21 10:00:14;;;;;;;2.92;2.80;;;27.50;99.90;;;;;;5049958;28;20206;-59
2023/07/21 10:02:46;;;;;;;2.80;2.67;;;27.70;99.90;;;;;;5049957;28;20565;-58
2023/07/21 10:05:15;;;;;;;2.50;2.40;;;28.10;99.90;;;;;;5044496;28;20297;-58
2023/07/21 10:07:46;;;;;;;3.95;2.60;;;28.10;99.90;;;;;;5045194;28;20185;-58
2023/07/21 10:10:16;;;;;;;2.97;2.47;;;28.40;99.90;;;;;;5053739;28;20197;-59
2023/07/21 10:12:49;;;;;;;2.72;2.20;;;28.80;99.90;;;;;;5050686;28;20552;-59
2023/07/21 10:15:19;;;;;;;5.07;3.08;;;28.70;99.90;;;;;;5055295;28;20185;-59
2023/07/21 10:17:58;;;;;;;3.83;2.60;;;27.80;99.90;;;;;;5047681;28;20917;-58
2023/07/21 10:20:40;;;;;;;3.50;2.83;;;26.10;99.90;;;;;;5043661;28;20196;-62
2023/07/21 10:23:10;;;;;;;3.03;2.78;;;25.70;99.90;;;;;;5048373;28;20197;-62
2023/07/21 10:25:48;;;;;;;3.60;3.30;;;26.10;99.90;;;;;;5048590;28;20193;-63
2023/07/21 10:28:22;;;;;;;3.33;3.13;;;25.70;99.90;;;;;;5056658;28;20193;-63
2023/07/21 10:30:52;;;;;;;6.97;3.22;;;25.20;99.90;;;;;;5049453;28;20265;-63
2023/07/21 10:33:30;;;;;;;4.10;3.60;;;24.70;99.90;;;;;;5045639;28;20217;-62
2023/07/21 10:36:13;;;;;;;4.60;3.93;;;24.10;99.90;;;;;;5046245;28;20214;-62
2023/07/21 10:38:42;;;;;;;7.50;4.97;;;23.60;99.90;;;;;;5051952;28;20283;-62
2023/07/21 10:41:10;;;;;;;8.03;6.60;;;23.10;99.90;;;;;;5048864;28;20958;-61
2023/07/21 10:43:39;;;;;;;9.17;8.47;;;22.40;99.90;;;;;;5056667;28;20191;-62
2023/07/21 10:46:07;;;;;;;10.17;5.83;;;21.30;1.00;;;;;;5049184;28;20194;-62
2023/07/21 10:48:37;;;;;;;9.83;5.27;;;20.20;1.00;;;;;;5052846;28;20587;-62
2023/07/21 10:51:06;;;;;;;6.40;4.60;;;19.30;1.00;;;;;;5052299;28;20621;-64
2023/07/21 10:53:34;;;;;;;4.07;3.77;;;18.70;1.00;;;;;;5036813;28;20648;-63
2023/07/21 10:56:07;;;;;;;3.83;3.50;;;18.30;1.00;;;;;;5039933;28;20196;-63
2023/07/21 10:58:35;;;;;;;4.87;3.20;;;18.10;1.00;;;;;;5046437;28;20228;-62
2023/07/21 11:01:04;;;;;;;3.83;3.63;;;18.00;1.00;;;;;;5044982;28;20200;-63
2023/07/21 11:03:32;;;;;;;4.20;3.90;;;18.10;34.40;;;;;;5050329;28;20191;-62
2023/07/21 11:06:02;;;;;;;4.97;4.50;;;18.10;13.20;;;;;;5044107;28;20201;-62
2023/07/21 11:08:31;;;;;;;5.77;3.83;;;18.20;31.90;;;;;;5047936;28;20331;-62
2023/07/21 11:10:59;;;;;;;4.47;4.27;;;18.30;25.80;;;;;;5054513;28;20193;-62
2023/07/21 11:13:28;;;;;;;5.77;4.67;;;18.40;45.10;;;;;;5048667;28;20550;-63
2023/07/21 11:15:57;;;;;;;5.30;4.90;;;18.50;56.80;;;;;;5046146;28;20928;-63
2023/07/21 11:18:25;;;;;;;6.07;5.30;;;18.70;26.50;;;;;;5047714;28;20204;-63
2023/07/21 11:20:54;;;;;;;10.20;6.57;;;18.80;55.50;;;;;;5043362;28;20184;-62
2023/07/21 11:23:24;;;;;;;6.73;6.13;;;19.10;52.80;;;;;;5048661;28;20653;-63
2023/07/21 11:26:06;;;;;;;7.80;5.97;;;19.50;48.80;;;;;;5051763;28;20196;-63
2023/07/21 11:28:35;;;;;;;6.37;5.77;;;19.80;62.80;;;;;;5050997;28;20195;-62
2023/07/21 11:31:03;;;;;;;5.60;5.20;;;20.10;20.60;;;;;;5042858;28;20198;-62
2023/07/21 11:33:45;;;;;;;5.80;5.27;;;20.40;1.00;;;;;;5044275;28;20196;-63
2023/07/21 11:36:15;;;;;;;9.07;5.80;;;20.90;1.00;;;;;;5031147;28;20194;-62
2023/07/21 11:38:57;;;;;;;7.87;5.67;;;21.20;1.00;;;;;;5030651;28;20565;-62
2023/07/21 11:41:49;;;;;;;6.37;5.30;;;21.70;1.00;;;;;;5030896;28;20792;-63
2023/07/21 11:44:22;;;;;;;6.33;5.73;;;22.40;1.00;;;;;;5041622;28;20285;-62
2023/07/21 11:47:05;;;;;;;5.87;5.27;;;22.60;1.00;;;;;;5047208;28;20187;-62
2023/07/21 11:49:39;;;;;;;7.77;6.33;;;22.40;1.00;;;;;;5044427;28;20278;-63
2023/07/21 11:52:09;;;;;;;8.77;7.00;;;22.10;1.00;;;;;;5043659;28;20207;-62
2023/07/21 11:54:41;;;;;;;10.53;7.27;;;21.80;1.00;;;;;;5049186;28;20671;-62
2023/07/21 11:57:10;;;;;;;12.33;7.13;;;21.30;1.00;;;;;;5045326;28;20291;-63
2023/07/21 11:59:39;;;;;;;12.23;7.70;;;21.00;1.00;;;;;;5046382;28;20570;-62
2023/07/21 12:02:09;;;;;;;10.20;7.80;;;20.70;1.00;;;;;;5046398;28;20199;-63
2023/07/21 12:04:38;;;;;;;10.13;7.60;;;20.50;1.00;;;;;;5051037;28;20241;-63
2023/07/21 12:07:08;;;;;;;9.70;7.03;;;20.50;1.00;;;;;;5049695;28;20186;-63
2023/07/21 12:09:38;;;;;;;9.77;7.13;;;20.60;1.00;;;;;;5048463;28;20230;-63
2023/07/21 12:12:08;;;;;;;8.33;6.90;;;21.10;1.00;;;;;;5054418;28;20202;-65
2023/07/21 12:14:36;;;;;;;7.57;6.53;;;21.60;1.00;;;;;;5052873;28;20276;-62
2023/07/21 12:17:05;;;;;;;6.80;6.10;;;22.00;1.00;;;;;;5051022;28;20198;-64
2023/07/21 12:19:34;;;;;;;9.00;6.17;;;22.00;1.00;;;;;;5054823;28;20250;-64
2023/07/21 12:22:03;;;;;;;6.50;5.77;;;22.00;1.00;;;;;;5052760;28;20193;-64
2023/07/21 12:24:32;;;;;;;5.93;4.83;;;22.30;94.60;;;;;;5055449;28;20664;-64
2023/07/21 12:27:02;;;;;;;5.73;5.23;;;22.60;99.90;;;;;;5048679;28;20232;-64
2023/07/21 12:33:11;;;;;;;5.23;4.80;;;22.40;99.90;;;;;;5045707;28;20278;-64
2023/07/21 12:35:40;;;;;;;5.17;4.67;;;22.30;99.90;;;;;;5053752;28;20200;-63
2023/07/21 12:38:08;;;;;;;5.60;5.10;;;22.40;99.90;;;;;;5054464;28;20212;-63
2023/07/21 12:40:37;;;;;;;5.50;4.73;;;22.70;99.90;;;;;;5063356;28;20193;-63
2023/07/21 12:43:06;;;;;;;5.80;4.90;;;23.10;99.90;;;;;;5063645;28;20196;-64
2023/07/21 12:45:35;;;;;;;5.80;5.13;;;23.30;99.90;;;;;;5058627;28;20240;-63
2023/07/21 12:48:03;;;;;;;5.37;4.80;;;23.20;99.90;;;;;;5049559;28;20221;-63
2023/07/21 12:50:32;;;;;;;5.57;4.90;;;23.10;99.90;;;;;;5053044;28;20198;-63
2023/07/21 12:53:00;;;;;;;5.53;4.90;;;22.90;99.90;;;;;;5059546;28;20190;-62